createdAt,value
2018-06-12T00:00:12.952Z,60.23
2018-06-12T00:02:41.405Z,56.40
2018-06-12T00:05:09.829Z,56.30
2018-06-12T00:07:38.309Z,71.07
2018-06-12T00:10:06.747Z,65.50
2018-06-12T00:12:35.197Z,71.60
2018-06-12T00:15:03.659Z,79.63
2018-06-12T00:17:32.101Z,86.90
2018-06-12T00:20:00.527Z,63.53
2018-06-12T00:22:28.994Z,64.23
2018-06-12T00:24:57.448Z,64.40
2018-06-12T00:27:25.882Z,67.53
2018-06-12T00:29:54.288Z,75.87
2018-06-12T00:32:22.737Z,65.77
2018-06-12T00:34:51.185Z,56.47
2018-06-12T00:37:19.649Z,56.33
2018-06-12T00:39:48.077Z,61.00
2018-06-12T00:42:16.569Z,47.13
2018-06-12T00:44:44.690Z,54.57
2018-06-12T00:47:13.146Z,53.30
2018-06-12T00:49:41.598Z,56.80
2018-06-12T00:52:10.037Z,49.00
2018-06-12T00:54:38.454Z,44.60
2018-06-12T00:57:07.846Z,47.13
2018-06-12T00:59:36.276Z,58.73
2018-06-12T01:02:04.932Z,49.77
2018-06-12T01:04:33.364Z,49.43
2018-06-12T01:07:01.813Z,47.60
2018-06-12T01:09:30.242Z,46.00
2018-06-12T01:11:58.701Z,42.33
2018-06-12T01:14:27.134Z,49.23
2018-06-12T01:16:55.605Z,51.03
2018-06-12T01:19:24.035Z,47.37
2018-06-12T01:21:52.494Z,50.20
2018-06-12T01:24:20.950Z,49.53
2018-06-12T01:26:49.072Z,48.93
2018-06-12T01:29:17.752Z,45.57
2018-06-12T01:31:46.197Z,49.73
2018-06-12T01:34:14.658Z,42.83
2018-06-12T01:36:43.091Z,42.83
2018-06-12T01:39:11.534Z,45.07
2018-06-12T01:41:39.982Z,48.20
2018-06-12T01:44:08.430Z,39.37
2018-06-12T01:46:36.857Z,43.73
2018-06-12T01:49:05.332Z,45.97
2018-06-12T01:51:33.776Z,43.13
2018-06-12T01:54:02.211Z,48.23
2018-06-12T01:56:30.642Z,42.53
2018-06-12T01:58:59.125Z,45.20
2018-06-12T02:01:27.587Z,48.07
2018-06-12T02:03:56.063Z,48.83
2018-06-12T02:06:24.546Z,48.20
2018-06-12T02:08:53.041Z,41.07
2018-06-12T02:11:21.514Z,42.40
2018-06-12T02:13:50.025Z,39.53
2018-06-12T02:16:18.485Z,37.93
2018-06-12T02:18:46.977Z,42.07
2018-06-12T02:21:15.446Z,37.87
2018-06-12T02:23:43.942Z,43.57
2018-06-12T02:26:12.410Z,42.97
2018-06-12T02:28:40.914Z,41.63
2018-06-12T02:31:09.382Z,43.20
2018-06-12T02:33:37.874Z,39.63
2018-06-12T02:36:06.373Z,45.67
2018-06-12T02:38:34.873Z,40.70
2018-06-12T02:41:03.343Z,37.60
2018-06-12T02:43:31.838Z,36.57
2018-06-12T02:46:00.304Z,43.80
2018-06-12T02:48:28.809Z,40.43
2018-06-12T02:50:57.291Z,35.17
2018-06-12T02:53:25.795Z,38.80
2018-06-12T02:55:54.274Z,41.53
2018-06-12T02:58:22.766Z,37.73
2018-06-12T03:00:51.234Z,39.47
2018-06-12T03:03:19.717Z,39.03
2018-06-12T03:05:48.182Z,44.00
2018-06-12T03:08:16.677Z,43.50
2018-06-12T03:10:45.146Z,40.23
2018-06-12T03:13:13.654Z,42.30
2018-06-12T03:15:42.136Z,40.10
2018-06-12T03:18:10.626Z,42.33
2018-06-12T03:20:45.149Z,43.97
2018-06-12T03:23:13.317Z,45.90
2018-06-12T03:25:41.813Z,40.13
2018-06-12T03:28:10.318Z,39.47
2018-06-12T03:30:38.823Z,37.40
2018-06-12T03:33:07.330Z,38.67
2018-06-12T03:35:35.832Z,37.53
2018-06-12T03:38:04.333Z,41.87
2018-06-12T03:40:32.832Z,41.73
2018-06-12T03:43:01.377Z,50.23
2018-06-12T03:45:29.834Z,38.40
2018-06-12T03:47:58.305Z,39.30
2018-06-12T03:50:26.778Z,40.13
2018-06-12T03:52:55.231Z,36.73
2018-06-12T03:55:23.729Z,32.67
2018-06-12T03:57:52.194Z,36.13
2018-06-12T04:00:20.693Z,36.83
2018-06-12T04:02:49.148Z,39.80
2018-06-12T04:05:17.628Z,36.37
2018-06-12T04:07:46.153Z,35.57
2018-06-12T04:10:14.621Z,39.33
2018-06-12T04:12:43.081Z,31.30
2018-06-12T04:15:11.577Z,38.43
2018-06-12T04:17:40.250Z,37.53
2018-06-12T04:20:08.767Z,31.70
2018-06-12T04:22:37.220Z,36.70
2018-06-12T04:25:05.730Z,38.63
2018-06-12T04:27:34.190Z,37.60
2018-06-12T04:30:02.678Z,33.40
2018-06-12T04:32:31.125Z,36.63
2018-06-12T04:34:59.619Z,39.73
2018-06-12T04:37:28.126Z,37.00
2018-06-12T04:39:56.594Z,37.77
2018-06-12T04:42:25.045Z,40.00
2018-06-12T04:44:53.557Z,38.03
2018-06-12T04:47:22.054Z,38.23
2018-06-12T04:49:50.558Z,40.13
2018-06-12T04:52:18.710Z,42.33
2018-06-12T04:54:47.195Z,41.27
2018-06-12T04:57:15.646Z,41.50
2018-06-12T04:59:44.138Z,39.70
2018-06-12T05:02:12.595Z,40.63
2018-06-12T05:04:41.110Z,36.53
2018-06-12T05:07:09.562Z,37.03
2018-06-12T05:09:38.046Z,36.77
2018-06-12T05:12:06.669Z,38.77
2018-06-12T05:14:34.833Z,41.63
2018-06-12T05:17:03.282Z,41.40
2018-06-12T05:19:31.777Z,40.13
2018-06-12T05:24:55.530Z,37.57
2018-06-12T05:27:24.004Z,37.37
2018-06-12T05:29:52.503Z,37.20
2018-06-12T05:32:21.094Z,37.40
2018-06-12T05:34:49.563Z,38.57
2018-06-12T05:37:18.049Z,36.53
2018-06-12T05:39:46.519Z,36.17
2018-06-12T05:42:14.996Z,33.97
2018-06-12T05:44:43.500Z,36.03
2018-06-12T05:47:11.978Z,34.90
2018-06-12T05:49:40.441Z,33.10
2018-06-12T05:52:08.926Z,37.07
2018-06-12T05:54:37.429Z,29.47
2018-06-12T05:57:05.935Z,36.30
2018-06-12T05:59:34.393Z,31.27
2018-06-12T06:02:02.886Z,29.60
2018-06-12T06:04:31.392Z,34.07
2018-06-12T06:06:59.890Z,36.60
2018-06-12T06:09:28.371Z,27.67
2018-06-12T06:11:56.831Z,27.73
2018-06-12T06:14:24.987Z,28.30
2018-06-12T06:16:53.438Z,31.10
2018-06-12T06:19:21.934Z,30.57
2018-06-12T06:21:50.413Z,30.37
2018-06-12T06:24:20.047Z,29.77
2018-06-12T06:26:48.506Z,30.37
2018-06-12T06:29:17.087Z,31.63
2018-06-12T06:31:45.537Z,30.00
2018-06-12T06:34:19.281Z,26.00
2018-06-12T06:36:48.740Z,29.17
2018-06-12T06:39:17.281Z,30.17
2018-06-12T06:41:48.013Z,28.30
2018-06-12T06:44:17.276Z,29.60
2018-06-12T06:46:45.798Z,28.00
2018-06-12T06:49:13.924Z,30.83
2018-06-12T06:51:42.404Z,26.97
2018-06-12T06:54:10.862Z,29.30
2018-06-12T06:56:39.328Z,28.27
2018-06-12T06:59:07.769Z,29.70
2018-06-12T07:01:36.234Z,26.20
2018-06-12T07:04:04.734Z,29.53
2018-06-12T07:06:32.918Z,25.83
2018-06-12T07:09:05.441Z,30.37
2018-06-12T07:11:33.993Z,30.40
2018-06-12T07:14:03.706Z,27.57
2018-06-12T07:16:32.268Z,25.00
2018-06-12T07:19:00.738Z,27.53
2018-06-12T07:21:28.925Z,27.97
2018-06-12T07:23:57.461Z,27.63
2018-06-12T07:26:25.957Z,27.70
2018-06-12T07:28:54.996Z,30.20
2018-06-12T07:31:25.699Z,25.20
2018-06-12T07:33:54.907Z,25.07
2018-06-12T07:36:23.458Z,24.47
2018-06-12T07:38:51.926Z,26.47
2018-06-12T07:41:20.435Z,27.20
2018-06-12T07:43:48.908Z,28.00
2018-06-12T07:46:17.406Z,26.07
2018-06-12T07:48:45.565Z,26.27
2018-06-12T07:51:14.045Z,25.20
2018-06-12T07:53:42.507Z,26.60
2018-06-12T07:56:11.007Z,25.23
2018-06-12T07:58:39.471Z,22.80
2018-06-12T08:01:07.965Z,24.73
2018-06-12T08:03:36.425Z,24.40
2018-06-12T08:06:04.956Z,25.03
2018-06-12T08:08:33.438Z,22.40
2018-06-12T08:11:01.932Z,25.33
2018-06-12T08:13:30.404Z,23.50
2018-06-12T08:15:58.908Z,21.63
2018-06-12T08:18:27.348Z,21.77
2018-06-12T08:20:55.521Z,23.13
2018-06-12T08:23:23.672Z,24.63
2018-06-12T08:25:52.194Z,24.53
2018-06-12T08:28:20.654Z,24.47
2018-06-12T08:30:49.538Z,23.47
2018-06-12T08:33:18.232Z,24.07
2018-06-12T08:35:46.494Z,36.93
2018-06-12T08:38:14.730Z,25.10
2018-06-12T08:40:43.240Z,25.07
2018-06-12T08:43:11.741Z,22.80
2018-06-12T08:45:39.902Z,22.87
2018-06-12T08:48:08.358Z,23.30
2018-06-12T08:50:36.933Z,22.87
2018-06-12T08:53:05.594Z,21.60
2018-06-12T08:55:34.107Z,20.90
2018-06-12T08:58:02.886Z,21.23
2018-06-12T09:00:31.397Z,17.93
2018-06-12T09:02:59.887Z,20.43
2018-06-12T09:05:28.387Z,18.40
2018-06-12T09:07:56.849Z,14.73
2018-06-12T09:10:25.342Z,16.20
2018-06-12T09:12:53.818Z,16.60
2018-06-12T09:15:22.293Z,16.83
2018-06-12T09:17:50.460Z,14.00
2018-06-12T09:20:18.918Z,17.13
2018-06-12T09:22:47.406Z,12.57
2018-06-12T09:25:15.870Z,15.50
2018-06-12T09:27:48.254Z,14.53
2018-06-12T09:30:17.749Z,12.27
2018-06-12T09:32:46.781Z,11.10
2018-06-12T09:35:14.987Z,10.37
2018-06-12T09:37:43.471Z,11.07
2018-06-12T09:40:11.959Z,11.50
2018-06-12T09:42:40.504Z,11.70
2018-06-12T09:45:08.970Z,10.67
2018-06-12T09:47:37.147Z,10.00
2018-06-12T09:50:05.653Z,10.73
2018-06-12T09:52:34.164Z,11.40
2018-06-12T09:55:02.638Z,12.90
2018-06-12T09:57:31.117Z,9.50
2018-06-12T09:59:59.561Z,9.03
2018-06-12T10:02:28.058Z,9.47
2018-06-12T10:04:56.512Z,8.97
2018-06-12T10:07:25.031Z,7.80
2018-06-12T10:09:53.486Z,7.17
2018-06-12T10:12:21.970Z,6.20
2018-06-12T10:14:50.437Z,4.43
2018-06-12T10:17:18.919Z,5.07
2018-06-12T10:19:47.091Z,4.33
2018-06-12T10:22:15.269Z,3.73
2018-06-12T10:24:43.751Z,4.53
2018-06-12T10:27:12.246Z,5.20
2018-06-12T10:29:40.711Z,4.13
2018-06-12T10:32:09.206Z,4.87
2018-06-12T10:34:37.679Z,4.53
2018-06-12T10:37:06.216Z,4.77
2018-06-12T10:39:34.673Z,4.90
2018-06-12T10:42:03.141Z,5.03
2018-06-12T10:44:31.603Z,6.23
2018-06-12T10:47:00.081Z,24.50
2018-06-12T10:49:28.537Z,8.43
2018-06-12T10:51:56.710Z,7.03
2018-06-12T10:54:25.161Z,7.37
2018-06-12T10:56:53.638Z,7.33
2018-06-12T10:59:22.102Z,7.37
2018-06-12T11:01:50.582Z,8.20
2018-06-12T11:04:19.050Z,8.30
2018-06-12T11:06:47.558Z,7.67
2018-06-12T11:09:16.022Z,8.70
2018-06-12T11:11:44.482Z,9.37
2018-06-12T11:14:12.962Z,9.60
2018-06-12T11:16:41.453Z,9.60
2018-06-12T11:19:09.934Z,11.63
2018-06-12T11:21:38.487Z,10.57
2018-06-12T11:24:07.005Z,9.93
2018-06-12T11:26:35.521Z,10.93
2018-06-12T11:29:04.001Z,10.57
2018-06-12T11:31:32.482Z,11.53
2018-06-12T11:34:01.421Z,12.07
2018-06-12T11:36:29.999Z,11.83
2018-06-12T11:38:58.570Z,10.70
2018-06-12T11:41:27.122Z,10.57
2018-06-12T11:43:55.704Z,11.03
2018-06-12T11:46:24.249Z,11.63
2018-06-12T11:48:52.779Z,10.93
2018-06-12T11:51:21.366Z,10.70
2018-06-12T11:53:49.865Z,11.30
2018-06-12T11:56:17.994Z,12.90
2018-06-12T11:58:46.469Z,12.57
2018-06-12T12:01:14.983Z,12.50
2018-06-12T12:03:43.458Z,14.20
2018-06-12T12:06:11.903Z,13.77
2018-06-12T12:08:40.418Z,13.03
2018-06-12T12:11:08.901Z,14.97
2018-06-12T12:13:37.403Z,16.87
2018-06-12T12:16:05.902Z,16.03
2018-06-12T12:18:34.373Z,16.27
2018-06-12T12:21:02.827Z,14.33
2018-06-12T12:23:30.985Z,17.70
2018-06-12T12:25:59.442Z,18.80
2018-06-12T12:28:27.956Z,18.40
2018-06-12T12:30:56.093Z,18.03
2018-06-12T12:33:24.596Z,16.93
2018-06-12T12:35:53.097Z,17.10
2018-06-12T12:38:21.585Z,16.80
2018-06-12T12:40:50.465Z,17.67
2018-06-12T12:43:18.959Z,17.37
2018-06-12T12:45:47.434Z,19.63
2018-06-12T12:48:15.993Z,17.63
2018-06-12T12:50:44.474Z,17.73
2018-06-12T12:53:12.969Z,18.83
2018-06-12T12:55:41.102Z,20.17
2018-06-12T12:58:09.590Z,21.07
2018-06-12T13:00:38.186Z,21.83
2018-06-12T13:03:06.723Z,21.40
2018-06-12T13:05:35.186Z,20.40
2018-06-12T13:08:03.684Z,20.13
2018-06-12T13:10:32.165Z,22.10
2018-06-12T13:13:00.652Z,21.67
2018-06-12T13:15:29.133Z,21.47
2018-06-12T13:17:57.637Z,22.27
2018-06-12T13:20:26.134Z,20.53
2018-06-12T13:22:54.627Z,23.30
2018-06-12T13:25:35.447Z,20.80
2018-06-12T13:28:03.954Z,20.27
2018-06-12T13:30:32.443Z,21.80
2018-06-12T13:33:00.930Z,18.23
2018-06-12T13:35:29.419Z,22.00
2018-06-12T13:37:57.601Z,21.70
2018-06-12T13:40:25.736Z,19.53
2018-06-12T13:42:54.216Z,20.10
2018-06-12T13:45:22.679Z,20.03
2018-06-12T13:47:51.176Z,20.67
2018-06-12T13:50:19.641Z,21.37
2018-06-12T13:52:48.123Z,20.77
2018-06-12T13:55:16.605Z,19.20
2018-06-12T13:57:45.114Z,18.73
2018-06-12T14:00:13.596Z,18.67
2018-06-12T14:02:42.094Z,18.63
2018-06-12T14:05:10.233Z,17.67
2018-06-12T14:07:38.701Z,19.90
2018-06-12T14:10:07.202Z,18.70
2018-06-12T14:12:35.665Z,20.00
2018-06-12T14:15:04.176Z,20.50
2018-06-12T14:17:32.659Z,20.93
2018-06-12T14:20:01.119Z,20.07
2018-06-12T14:22:29.610Z,19.50
2018-06-12T14:24:58.092Z,19.20
2018-06-12T14:27:26.586Z,19.20
2018-06-12T14:29:55.062Z,18.50
2018-06-12T14:32:23.534Z,18.93
2018-06-12T14:34:52.026Z,19.43
2018-06-12T14:37:20.526Z,19.60
2018-06-12T14:39:49.013Z,20.50
2018-06-12T14:42:17.486Z,18.33
2018-06-12T14:44:45.986Z,19.00
2018-06-12T14:47:14.480Z,18.50
2018-06-12T14:49:42.986Z,19.30
2018-06-12T14:52:11.466Z,19.10
2018-06-12T14:54:39.946Z,19.23
2018-06-12T14:57:08.431Z,18.27
2018-06-12T14:59:36.914Z,17.73
2018-06-12T15:02:05.579Z,19.80
2018-06-12T15:04:34.073Z,19.53
2018-06-12T15:07:02.543Z,20.67
2018-06-12T15:09:31.056Z,18.33
2018-06-12T15:11:59.566Z,19.87
2018-06-12T15:14:28.054Z,22.23
2018-06-12T15:16:56.526Z,19.53
2018-06-12T15:19:25.022Z,22.37
2018-06-12T15:21:53.490Z,22.67
2018-06-12T15:24:21.977Z,21.40
2018-06-12T15:26:50.455Z,21.30
2018-06-12T15:29:18.973Z,20.53
2018-06-12T15:31:47.461Z,20.50
2018-06-12T15:34:15.984Z,21.27
2018-06-12T15:36:44.907Z,20.57
2018-06-12T15:39:13.482Z,19.97
2018-06-12T15:41:42.043Z,19.77
2018-06-12T15:44:10.646Z,20.30
2018-06-12T15:46:39.162Z,21.67
2018-06-12T15:49:07.978Z,21.60
2018-06-12T15:51:36.494Z,19.70
2018-06-12T15:54:04.992Z,19.07
2018-06-12T15:56:33.484Z,17.20
2018-06-12T15:59:01.969Z,18.93
2018-06-12T16:01:30.514Z,20.63
2018-06-12T16:03:58.957Z,17.47
2018-06-12T16:06:27.117Z,17.63
2018-06-12T16:08:55.611Z,18.03
2018-06-12T16:11:24.075Z,18.17
2018-06-12T16:13:52.888Z,16.67
2018-06-12T16:16:21.160Z,16.07
2018-06-12T16:18:49.759Z,14.80
2018-06-12T16:21:18.380Z,16.73
2018-06-12T16:23:46.926Z,15.17
2018-06-12T16:26:15.503Z,15.97
2018-06-12T16:28:44.134Z,16.20
2018-06-12T16:31:12.658Z,15.70
2018-06-12T16:33:40.878Z,17.97
2018-06-12T16:36:09.524Z,14.70
2018-06-12T16:38:38.066Z,15.40
2018-06-12T16:41:06.601Z,14.03
2018-06-12T16:43:35.118Z,16.37
2018-06-12T16:46:03.675Z,13.97
2018-06-12T16:48:32.203Z,11.13
2018-06-12T16:51:00.670Z,9.73
2018-06-12T16:53:29.113Z,9.10
2018-06-12T16:55:58.439Z,9.83
2018-06-12T16:58:27.010Z,7.67
2018-06-12T17:00:56.896Z,7.87
2018-06-12T17:03:25.458Z,7.27
2018-06-12T17:05:54.339Z,7.73
2018-06-12T17:08:22.913Z,6.80
2018-06-12T17:10:52.163Z,8.03
2018-06-12T17:13:21.876Z,7.23
2018-06-12T17:15:50.556Z,7.07
2018-06-12T17:18:20.205Z,6.47
2018-06-12T17:20:49.073Z,7.10
2018-06-12T17:23:21.124Z,6.53
2018-06-12T17:25:49.621Z,6.33
2018-06-12T17:28:18.404Z,7.40
2018-06-12T17:30:47.666Z,7.63
2018-06-12T17:33:18.365Z,6.87
2018-06-12T17:35:46.929Z,7.87
2018-06-12T17:38:15.494Z,7.43
2018-06-12T17:40:44.302Z,9.17
2018-06-12T17:43:12.852Z,13.33
2018-06-12T17:45:41.419Z,7.37
2018-06-12T17:48:09.945Z,8.27
2018-06-12T17:50:38.484Z,8.30
2018-06-12T17:53:07.041Z,8.03
2018-06-12T17:55:35.245Z,8.27
2018-06-12T17:58:03.846Z,8.43
2018-06-12T18:00:32.472Z,8.47
2018-06-12T18:03:01.028Z,8.47
2018-06-12T18:05:29.596Z,11.13
2018-06-12T18:08:00.231Z,8.10
2018-06-12T18:10:28.864Z,7.40
2018-06-12T18:12:57.423Z,7.00
2018-06-12T18:15:26.066Z,7.00
2018-06-12T18:17:54.529Z,8.60
2018-06-12T18:20:22.985Z,9.37
2018-06-12T18:22:51.516Z,8.43
2018-06-12T18:25:20.031Z,8.03
2018-06-12T18:27:48.534Z,8.60
2018-06-12T18:30:16.709Z,8.53
2018-06-12T18:32:45.169Z,7.73
2018-06-12T18:35:13.674Z,7.33
2018-06-12T18:37:47.066Z,7.50
2018-06-12T18:40:15.671Z,8.33
2018-06-12T18:42:44.237Z,8.77
2018-06-12T18:45:12.471Z,9.17
2018-06-12T18:47:41.187Z,9.77
2018-06-12T18:50:09.739Z,8.87
2018-06-12T18:52:38.363Z,8.77
2018-06-12T18:55:06.638Z,8.77
2018-06-12T18:57:34.857Z,14.60
2018-06-12T19:00:03.621Z,8.90
2018-06-12T19:02:32.118Z,11.03
2018-06-12T19:05:00.633Z,9.70
2018-06-12T19:07:29.103Z,8.73
2018-06-12T19:09:57.582Z,10.57
2018-06-12T19:12:26.057Z,11.60
2018-06-12T19:14:55.721Z,12.23
2018-06-12T19:17:24.286Z,11.93
2018-06-12T19:19:52.896Z,15.10
2018-06-12T19:22:21.675Z,14.20
2018-06-12T19:24:50.384Z,13.53
2018-06-12T19:27:18.972Z,17.97
2018-06-12T19:29:47.543Z,12.00
2018-06-12T19:32:16.069Z,21.17
2018-06-12T19:34:44.572Z,32.67
2018-06-12T19:37:12.865Z,19.50
2018-06-12T19:39:41.301Z,17.13
2018-06-12T19:42:09.798Z,14.43
2018-06-12T19:44:38.265Z,17.03
2018-06-12T19:47:07.290Z,18.70
2018-06-12T19:49:36.217Z,16.70
2018-06-12T19:52:04.911Z,15.97
2018-06-12T19:54:33.505Z,19.37
2018-06-12T19:57:02.429Z,20.63
2018-06-12T19:59:30.642Z,16.70
2018-06-12T20:01:59.457Z,16.37
2018-06-12T20:04:28.066Z,20.00
2018-06-12T20:06:56.603Z,16.17
2018-06-12T20:09:25.087Z,17.17
2018-06-12T20:11:53.569Z,18.00
2018-06-12T20:14:22.030Z,15.80
2018-06-12T20:16:51.004Z,18.77
2018-06-12T20:19:19.188Z,20.03
2018-06-12T20:21:50.446Z,19.53
2018-06-12T20:24:18.919Z,20.20
2018-06-12T20:26:47.411Z,22.80
2018-06-12T20:29:15.891Z,19.47
2018-06-12T20:31:44.372Z,17.23
2018-06-12T20:34:12.846Z,21.83
2018-06-12T20:36:46.770Z,18.83
2018-06-12T20:39:15.268Z,18.43
2018-06-12T20:41:43.778Z,20.53
2018-06-12T20:44:11.937Z,21.90
2018-06-12T20:46:41.309Z,26.27
2018-06-12T20:49:09.923Z,22.30
2018-06-12T20:51:38.536Z,26.90
2018-06-12T20:54:07.142Z,22.90
2018-06-12T20:56:35.778Z,29.87
2018-06-12T20:59:04.412Z,23.37
2018-06-12T21:01:33.039Z,56.57
2018-06-12T21:04:01.702Z,28.90
2018-06-12T21:06:30.282Z,25.93
2018-06-12T21:08:58.858Z,26.53
2018-06-12T21:11:27.342Z,23.80
2018-06-12T21:13:55.846Z,26.67
2018-06-12T21:16:24.306Z,25.43
2018-06-12T21:18:52.845Z,24.83
2018-06-12T21:21:21.326Z,29.93
2018-06-12T21:23:49.821Z,25.80
2018-06-12T21:26:18.310Z,31.40
2018-06-12T21:28:46.791Z,28.77
2018-06-12T21:31:15.273Z,26.47
2018-06-12T21:33:43.773Z,28.70
2018-06-12T21:36:12.250Z,28.53
2018-06-12T21:38:40.742Z,29.50
2018-06-12T21:41:09.209Z,29.93
2018-06-12T21:43:37.719Z,30.70
2018-06-12T21:46:06.364Z,33.23
2018-06-12T21:48:34.821Z,32.83
2018-06-12T21:51:03.280Z,31.03
2018-06-12T21:53:31.776Z,33.70
2018-06-12T21:56:00.233Z,34.07
2018-06-12T21:58:30.766Z,34.73
2018-06-12T22:00:59.005Z,33.47
2018-06-12T22:03:27.529Z,32.60
2018-06-12T22:05:56.035Z,31.77
2018-06-12T22:08:24.522Z,36.60
2018-06-12T22:10:52.998Z,34.67
2018-06-12T22:13:21.474Z,34.03
2018-06-12T22:15:49.969Z,33.87
2018-06-12T22:18:18.478Z,34.77
2018-06-12T22:20:46.946Z,34.50
2018-06-12T22:23:15.477Z,34.90
2018-06-12T22:25:44.511Z,38.03
2018-06-12T22:28:13.088Z,35.83
2018-06-12T22:30:41.602Z,32.43
2018-06-12T22:33:10.106Z,33.43
2018-06-12T22:35:38.586Z,30.77
2018-06-12T22:38:07.188Z,31.30
2018-06-12T22:40:35.773Z,31.47
2018-06-12T22:43:04.369Z,30.77
2018-06-12T22:45:32.911Z,30.43
2018-06-12T22:48:01.411Z,30.30
2018-06-12T22:50:29.582Z,28.17
2018-06-12T22:52:57.737Z,28.53
2018-06-12T22:55:26.242Z,26.80
2018-06-12T22:57:54.743Z,31.00
2018-06-12T23:00:23.239Z,28.73
2018-06-12T23:02:51.694Z,25.87
2018-06-12T23:05:20.208Z,28.43
2018-06-12T23:07:48.713Z,27.57
2018-06-12T23:10:17.270Z,28.67
2018-06-12T23:12:45.745Z,27.10
2018-06-12T23:15:14.222Z,26.80
2018-06-12T23:17:42.702Z,28.53
2018-06-12T23:20:22.477Z,27.23
2018-06-12T23:22:50.938Z,25.67
2018-06-12T23:25:19.451Z,27.63
2018-06-12T23:27:47.931Z,25.23
2018-06-12T23:30:16.477Z,25.97
2018-06-12T23:32:44.942Z,26.80
2018-06-12T23:35:13.437Z,23.80
2018-06-12T23:37:41.930Z,26.47
2018-06-12T23:40:10.442Z,23.50
2018-06-12T23:42:38.921Z,22.00
2018-06-12T23:45:07.409Z,26.30
2018-06-12T23:47:35.881Z,23.57
2018-06-12T23:50:04.373Z,23.73
2018-06-12T23:52:32.534Z,23.33
2018-06-12T23:55:01.022Z,21.80
2018-06-12T23:57:29.162Z,24.07
2018-06-12T23:59:57.637Z,22.73
